sensor_id;sensor_type;location;lat;lon;timestamp;P1;durP1;ratioP1;P2;durP2;ratioP2
36575;SDS011;45700;50.930;5.168;2023-04-24T00:00:38;16.17;;;5.88;;
36575;SDS011;45700;50.930;5.168;2023-04-24T00:04:41;18.50;;;6.82;;
36575;SDS011;45700;50.930;5.168;2023-04-24T00:08:44;14.48;;;6.60;;
36575;SDS011;45700;50.930;5.168;2023-04-24T00:12:45;16.88;;;6.78;;
36575;SDS011;45700;50.930;5.168;2023-04-24T00:16:46;13.32;;;6.40;;
36575;SDS011;45700;50.930;5.168;2023-04-24T00:20:47;13.60;;;6.38;;
36575;SDS011;45700;50.930;5.168;2023-04-24T00:24:48;14.00;;;6.07;;
36575;SDS011;45700;50.930;5.168;2023-04-24T00:28:49;14.38;;;6.13;;
36575;SDS011;45700;50.930;5.168;2023-04-24T00:32:50;18.30;;;7.05;;
36575;SDS011;45700;50.930;5.168;2023-04-24T00:36:51;15.57;;;7.55;;
36575;SDS011;45700;50.930;5.168;2023-04-24T00:40:52;16.70;;;7.28;;
36575;SDS011;45700;50.930;5.168;2023-04-24T00:44:54;14.68;;;6.90;;
36575;SDS011;45700;50.930;5.168;2023-04-24T00:48:55;21.05;;;7.80;;
36575;SDS011;45700;50.930;5.168;2023-04-24T00:52:57;24.08;;;8.75;;
36575;SDS011;45700;50.930;5.168;2023-04-24T00:56:58;17.25;;;7.93;;
36575;SDS011;45700;50.930;5.168;2023-04-24T01:01:00;24.00;;;8.60;;
36575;SDS011;45700;50.930;5.168;2023-04-24T01:05:02;25.27;;;7.90;;
36575;SDS011;45700;50.930;5.168;2023-04-24T01:09:03;31.02;;;8.43;;
36575;SDS011;45700;50.930;5.168;2023-04-24T01:13:04;21.23;;;8.27;;
36575;SDS011;45700;50.930;5.168;2023-04-24T01:17:05;20.42;;;8.23;;
36575;SDS011;45700;50.930;5.168;2023-04-24T01:21:07;19.42;;;8.18;;
36575;SDS011;45700;50.930;5.168;2023-04-24T01:25:09;17.92;;;7.55;;
36575;SDS011;45700;50.930;5.168;2023-04-24T01:29:10;16.48;;;8.07;;
36575;SDS011;45700;50.930;5.168;2023-04-24T01:33:12;20.05;;;7.72;;
36575;SDS011;45700;50.930;5.168;2023-04-24T01:37:13;18.95;;;8.00;;
36575;SDS011;45700;50.930;5.168;2023-04-24T01:41:14;20.85;;;8.07;;
36575;SDS011;45700;50.930;5.168;2023-04-24T01:45:15;20.15;;;8.23;;
36575;SDS011;45700;50.930;5.168;2023-04-24T01:49:16;15.80;;;7.97;;
36575;SDS011;45700;50.930;5.168;2023-04-24T01:53:17;15.93;;;7.28;;
36575;SDS011;45700;50.930;5.168;2023-04-24T01:57:18;17.92;;;7.57;;
36575;SDS011;45700;50.930;5.168;2023-04-24T02:01:20;17.55;;;7.60;;
36575;SDS011;45700;50.930;5.168;2023-04-24T02:05:21;16.98;;;7.68;;
36575;SDS011;45700;50.930;5.168;2023-04-24T02:09:22;17.70;;;8.18;;
36575;SDS011;45700;50.930;5.168;2023-04-24T02:13:23;24.20;;;9.02;;
36575;SDS011;45700;50.930;5.168;2023-04-24T02:17:24;18.38;;;8.45;;
36575;SDS011;45700;50.930;5.168;2023-04-24T02:21:25;15.20;;;7.53;;
36575;SDS011;45700;50.930;5.168;2023-04-24T02:25:27;16.02;;;7.65;;
36575;SDS011;45700;50.930;5.168;2023-04-24T02:29:28;23.35;;;7.85;;
36575;SDS011;45700;50.930;5.168;2023-04-24T02:33:30;17.15;;;7.50;;
36575;SDS011;45700;50.930;5.168;2023-04-24T02:37:31;13.45;;;7.10;;
36575;SDS011;45700;50.930;5.168;2023-04-24T02:41:32;18.38;;;6.95;;
36575;SDS011;45700;50.930;5.168;2023-04-24T02:45:33;16.13;;;6.97;;
36575;SDS011;45700;50.930;5.168;2023-04-24T02:49:34;18.00;;;6.53;;
36575;SDS011;45700;50.930;5.168;2023-04-24T02:53:35;14.93;;;6.68;;
36575;SDS011;45700;50.930;5.168;2023-04-24T02:57:36;16.38;;;7.32;;
36575;SDS011;45700;50.930;5.168;2023-04-24T03:01:37;13.13;;;6.20;;
36575;SDS011;45700;50.930;5.168;2023-04-24T03:05:38;15.52;;;7.00;;
36575;SDS011;45700;50.930;5.168;2023-04-24T03:09:40;16.38;;;7.68;;
36575;SDS011;45700;50.930;5.168;2023-04-24T03:13:41;16.48;;;7.80;;
36575;SDS011;45700;50.930;5.168;2023-04-24T03:17:42;24.63;;;8.95;;
36575;SDS011;45700;50.930;5.168;2023-04-24T03:21:43;16.38;;;7.80;;
36575;SDS011;45700;50.930;5.168;2023-04-24T03:25:45;18.15;;;7.80;;
36575;SDS011;45700;50.930;5.168;2023-04-24T03:29:48;20.10;;;7.72;;
36575;SDS011;45700;50.930;5.168;2023-04-24T03:33:53;19.27;;;8.43;;
36575;SDS011;45700;50.930;5.168;2023-04-24T03:37:54;23.63;;;7.65;;
36575;SDS011;45700;50.930;5.168;2023-04-24T03:41:55;22.90;;;7.25;;
36575;SDS011;45700;50.930;5.168;2023-04-24T03:45:56;16.10;;;7.05;;
36575;SDS011;45700;50.930;5.168;2023-04-24T03:49:57;18.60;;;7.22;;
36575;SDS011;45700;50.930;5.168;2023-04-24T03:53:58;18.27;;;7.82;;
36575;SDS011;45700;50.930;5.168;2023-04-24T03:57:59;17.17;;;7.00;;
36575;SDS011;45700;50.930;5.168;2023-04-24T04:02:00;13.07;;;7.22;;
36575;SDS011;45700;50.930;5.168;2023-04-24T04:06:01;17.73;;;8.27;;
36575;SDS011;45700;50.930;5.168;2023-04-24T04:10:02;16.65;;;7.47;;
36575;SDS011;45700;50.930;5.168;2023-04-24T04:14:04;15.25;;;6.88;;
36575;SDS011;45700;50.930;5.168;2023-04-24T04:18:05;16.83;;;7.97;;
36575;SDS011;45700;50.930;5.168;2023-04-24T04:22:06;16.80;;;6.35;;
36575;SDS011;45700;50.930;5.168;2023-04-24T04:26:08;18.80;;;6.55;;
36575;SDS011;45700;50.930;5.168;2023-04-24T04:30:09;14.75;;;6.60;;
36575;SDS011;45700;50.930;5.168;2023-04-24T04:34:10;17.60;;;7.35;;
36575;SDS011;45700;50.930;5.168;2023-04-24T04:38:12;16.38;;;7.03;;
36575;SDS011;45700;50.930;5.168;2023-04-24T04:42:14;16.05;;;6.50;;
36575;SDS011;45700;50.930;5.168;2023-04-24T04:46:15;14.10;;;6.03;;
36575;SDS011;45700;50.930;5.168;2023-04-24T04:50:17;15.27;;;6.10;;
36575;SDS011;45700;50.930;5.168;2023-04-24T04:54:19;12.15;;;5.18;;
36575;SDS011;45700;50.930;5.168;2023-04-24T04:58:20;9.65;;;5.07;;
36575;SDS011;45700;50.930;5.168;2023-04-24T05:02:21;11.25;;;4.95;;
36575;SDS011;45700;50.930;5.168;2023-04-24T05:06:22;10.70;;;4.70;;
36575;SDS011;45700;50.930;5.168;2023-04-24T05:10:23;10.15;;;4.90;;
36575;SDS011;45700;50.930;5.168;2023-04-24T05:14:24;8.70;;;3.97;;
36575;SDS011;45700;50.930;5.168;2023-04-24T05:18:25;10.30;;;4.30;;
36575;SDS011;45700;50.930;5.168;2023-04-24T05:22:26;11.20;;;3.83;;
36575;SDS011;45700;50.930;5.168;2023-04-24T05:26:27;10.60;;;4.47;;
36575;SDS011;45700;50.930;5.168;2023-04-24T05:30:28;11.73;;;4.40;;
36575;SDS011;45700;50.930;5.168;2023-04-24T05:34:29;7.57;;;3.33;;
36575;SDS011;45700;50.930;5.168;2023-04-24T05:38:30;7.03;;;3.40;;
36575;SDS011;45700;50.930;5.168;2023-04-24T05:42:31;8.75;;;3.30;;
36575;SDS011;45700;50.930;5.168;2023-04-24T05:46:32;6.40;;;2.28;;
36575;SDS011;45700;50.930;5.168;2023-04-24T05:50:33;5.05;;;2.88;;
36575;SDS011;45700;50.930;5.168;2023-04-24T05:54:34;10.45;;;3.70;;
36575;SDS011;45700;50.930;5.168;2023-04-24T05:58:35;9.68;;;4.13;;
36575;SDS011;45700;50.930;5.168;2023-04-24T06:02:38;10.25;;;4.18;;
36575;SDS011;45700;50.930;5.168;2023-04-24T06:06:39;8.55;;;3.88;;
36575;SDS011;45700;50.930;5.168;2023-04-24T06:10:40;10.93;;;4.18;;
36575;SDS011;45700;50.930;5.168;2023-04-24T06:14:41;11.25;;;4.15;;
36575;SDS011;45700;50.930;5.168;2023-04-24T06:18:42;13.98;;;4.35;;
36575;SDS011;45700;50.930;5.168;2023-04-24T06:22:43;10.05;;;5.13;;
36575;SDS011;45700;50.930;5.168;2023-04-24T06:26:44;10.25;;;5.18;;
36575;SDS011;45700;50.930;5.168;2023-04-24T06:30:46;8.20;;;4.20;;
36575;SDS011;45700;50.930;5.168;2023-04-24T06:34:47;9.60;;;5.13;;
36575;SDS011;45700;50.930;5.168;2023-04-24T06:38:48;10.65;;;4.55;;
36575;SDS011;45700;50.930;5.168;2023-04-24T06:42:49;11.95;;;4.97;;
36575;SDS011;45700;50.930;5.168;2023-04-24T06:46:50;18.33;;;5.88;;
36575;SDS011;45700;50.930;5.168;2023-04-24T06:50:52;13.50;;;5.57;;
36575;SDS011;45700;50.930;5.168;2023-04-24T06:54:59;19.48;;;6.63;;
36575;SDS011;45700;50.930;5.168;2023-04-24T06:59:00;17.67;;;6.57;;
36575;SDS011;45700;50.930;5.168;2023-04-24T07:03:01;15.07;;;6.57;;
36575;SDS011;45700;50.930;5.168;2023-04-24T07:07:02;15.88;;;6.25;;
36575;SDS011;45700;50.930;5.168;2023-04-24T07:11:04;15.18;;;6.07;;
36575;SDS011;45700;50.930;5.168;2023-04-24T07:15:05;13.65;;;6.00;;
36575;SDS011;45700;50.930;5.168;2023-04-24T07:19:08;14.63;;;6.18;;
36575;SDS011;45700;50.930;5.168;2023-04-24T07:23:09;17.48;;;5.80;;
36575;SDS011;45700;50.930;5.168;2023-04-24T07:27:10;15.35;;;6.15;;
36575;SDS011;45700;50.930;5.168;2023-04-24T07:31:11;17.60;;;6.03;;
36575;SDS011;45700;50.930;5.168;2023-04-24T07:35:12;14.98;;;6.13;;
36575;SDS011;45700;50.930;5.168;2023-04-24T07:39:13;13.95;;;7.13;;
36575;SDS011;45700;50.930;5.168;2023-04-24T07:43:14;19.17;;;8.10;;
36575;SDS011;45700;50.930;5.168;2023-04-24T07:47:15;27.05;;;8.55;;
36575;SDS011;45700;50.930;5.168;2023-04-24T07:51:16;22.23;;;7.85;;
36575;SDS011;45700;50.930;5.168;2023-04-24T07:55:18;20.85;;;8.20;;
36575;SDS011;45700;50.930;5.168;2023-04-24T07:59:19;23.33;;;7.85;;
36575;SDS011;45700;50.930;5.168;2023-04-24T08:03:20;14.55;;;6.50;;
36575;SDS011;45700;50.930;5.168;2023-04-24T08:07:23;18.58;;;6.95;;
36575;SDS011;45700;50.930;5.168;2023-04-24T08:11:24;15.50;;;6.95;;
36575;SDS011;45700;50.930;5.168;2023-04-24T08:15:27;23.42;;;7.07;;
36575;SDS011;45700;50.930;5.168;2023-04-24T08:19:28;12.52;;;5.80;;
36575;SDS011;45700;50.930;5.168;2023-04-24T08:23:29;14.77;;;6.00;;
36575;SDS011;45700;50.930;5.168;2023-04-24T08:27:30;11.27;;;5.00;;
36575;SDS011;45700;50.930;5.168;2023-04-24T08:31:31;10.70;;;4.60;;
36575;SDS011;45700;50.930;5.168;2023-04-24T08:35:32;10.98;;;4.18;;
36575;SDS011;45700;50.930;5.168;2023-04-24T08:39:33;14.68;;;4.43;;
36575;SDS011;45700;50.930;5.168;2023-04-24T08:43:34;13.95;;;4.32;;
36575;SDS011;45700;50.930;5.168;2023-04-24T08:47:37;9.88;;;3.55;;
36575;SDS011;45700;50.930;5.168;2023-04-24T08:51:39;9.40;;;3.58;;
36575;SDS011;45700;50.930;5.168;2023-04-24T08:55:40;9.40;;;4.20;;
36575;SDS011;45700;50.930;5.168;2023-04-24T08:59:42;7.38;;;3.15;;
36575;SDS011;45700;50.930;5.168;2023-04-24T09:03:43;7.72;;;2.92;;
36575;SDS011;45700;50.930;5.168;2023-04-24T09:07:45;7.45;;;3.30;;
36575;SDS011;45700;50.930;5.168;2023-04-24T09:11:49;10.13;;;3.00;;
36575;SDS011;45700;50.930;5.168;2023-04-24T09:15:50;13.30;;;3.83;;
36575;SDS011;45700;50.930;5.168;2023-04-24T09:19:51;9.13;;;4.20;;
36575;SDS011;45700;50.930;5.168;2023-04-24T09:23:59;12.75;;;4.97;;
36575;SDS011;45700;50.930;5.168;2023-04-24T09:28:02;10.70;;;4.77;;
36575;SDS011;45700;50.930;5.168;2023-04-24T09:32:22;17.15;;;4.88;;
36575;SDS011;45700;50.930;5.168;2023-04-24T09:36:32;15.30;;;5.00;;
36575;SDS011;45700;50.930;5.168;2023-04-24T09:40:34;11.35;;;5.13;;
36575;SDS011;45700;50.930;5.168;2023-04-24T09:44:36;13.10;;;5.43;;
36575;SDS011;45700;50.930;5.168;2023-04-24T09:48:37;16.25;;;5.32;;
36575;SDS011;45700;50.930;5.168;2023-04-24T09:53:12;13.63;;;5.95;;
36575;SDS011;45700;50.930;5.168;2023-04-24T09:57:10;11.82;;;4.53;;
36575;SDS011;45700;50.930;5.168;2023-04-24T10:01:11;12.25;;;4.15;;
36575;SDS011;45700;50.930;5.168;2023-04-24T10:05:13;12.73;;;3.80;;
36575;SDS011;45700;50.930;5.168;2023-04-24T10:09:14;12.75;;;3.15;;
36575;SDS011;45700;50.930;5.168;2023-04-24T10:13:15;9.85;;;3.38;;
36575;SDS011;45700;50.930;5.168;2023-04-24T10:17:16;8.38;;;3.65;;
36575;SDS011;45700;50.930;5.168;2023-04-24T10:21:18;10.75;;;3.33;;
36575;SDS011;45700;50.930;5.168;2023-04-24T10:25:23;13.75;;;3.70;;
36575;SDS011;45700;50.930;5.168;2023-04-24T10:29:25;12.00;;;3.65;;
36575;SDS011;45700;50.930;5.168;2023-04-24T10:33:26;8.60;;;3.20;;
36575;SDS011;45700;50.930;5.168;2023-04-24T10:37:27;11.02;;;3.35;;
36575;SDS011;45700;50.930;5.168;2023-04-24T10:41:29;6.07;;;3.03;;
36575;SDS011;45700;50.930;5.168;2023-04-24T10:45:31;13.20;;;4.22;;
36575;SDS011;45700;50.930;5.168;2023-04-24T10:49:32;11.20;;;3.28;;
36575;SDS011;45700;50.930;5.168;2023-04-24T10:53:34;11.32;;;3.10;;
36575;SDS011;45700;50.930;5.168;2023-04-24T10:57:35;4.95;;;2.67;;
36575;SDS011;45700;50.930;5.168;2023-04-24T11:01:37;10.40;;;2.97;;
36575;SDS011;45700;50.930;5.168;2023-04-24T11:10:24;5.80;;;2.53;;
36575;SDS011;45700;50.930;5.168;2023-04-24T11:14:25;6.70;;;2.60;;
36575;SDS011;45700;50.930;5.168;2023-04-24T11:18:26;9.45;;;2.85;;
36575;SDS011;45700;50.930;5.168;2023-04-24T11:22:38;7.88;;;2.85;;
36575;SDS011;45700;50.930;5.168;2023-04-24T11:26:42;5.07;;;2.50;;
36575;SDS011;45700;50.930;5.168;2023-04-24T11:30:43;8.45;;;2.95;;
36575;SDS011;45700;50.930;5.168;2023-04-24T11:34:47;7.90;;;2.30;;
36575;SDS011;45700;50.930;5.168;2023-04-24T11:38:49;6.65;;;2.30;;
36575;SDS011;45700;50.930;5.168;2023-04-24T11:42:50;8.25;;;2.50;;
36575;SDS011;45700;50.930;5.168;2023-04-24T11:46:51;8.98;;;2.88;;
36575;SDS011;45700;50.930;5.168;2023-04-24T11:50:52;7.85;;;2.53;;
36575;SDS011;45700;50.930;5.168;2023-04-24T11:54:53;7.57;;;2.30;;
36575;SDS011;45700;50.930;5.168;2023-04-24T11:58:55;6.38;;;2.38;;
36575;SDS011;45700;50.930;5.168;2023-04-24T12:03:11;5.70;;;1.90;;
36575;SDS011;45700;50.930;5.168;2023-04-24T12:07:12;5.25;;;2.33;;
36575;SDS011;45700;50.930;5.168;2023-04-24T12:11:14;7.07;;;2.33;;
36575;SDS011;45700;50.930;5.168;2023-04-24T12:15:16;4.13;;;2.20;;
36575;SDS011;45700;50.930;5.168;2023-04-24T12:19:21;5.15;;;2.88;;
36575;SDS011;45700;50.930;5.168;2023-04-24T12:23:34;7.32;;;2.08;;
36575;SDS011;45700;50.930;5.168;2023-04-24T12:27:35;6.07;;;2.20;;
36575;SDS011;45700;50.930;5.168;2023-04-24T12:31:36;5.60;;;2.28;;
36575;SDS011;45700;50.930;5.168;2023-04-24T12:35:39;4.57;;;2.05;;
36575;SDS011;45700;50.930;5.168;2023-04-24T12:39:44;3.75;;;1.95;;
36575;SDS011;45700;50.930;5.168;2023-04-24T12:43:52;5.05;;;2.65;;
36575;SDS011;45700;50.930;5.168;2023-04-24T12:47:53;4.00;;;2.50;;
36575;SDS011;45700;50.930;5.168;2023-04-24T12:51:54;8.05;;;2.78;;
36575;SDS011;45700;50.930;5.168;2023-04-24T12:55:55;6.13;;;2.35;;
36575;SDS011;45700;50.930;5.168;2023-04-24T12:59:58;5.10;;;2.38;;
36575;SDS011;45700;50.930;5.168;2023-04-24T13:03:59;6.75;;;2.80;;
36575;SDS011;45700;50.930;5.168;2023-04-24T13:08:00;5.53;;;2.53;;
36575;SDS011;45700;50.930;5.168;2023-04-24T13:12:01;6.82;;;2.40;;
36575;SDS011;45700;50.930;5.168;2023-04-24T13:16:02;8.85;;;2.40;;
36575;SDS011;45700;50.930;5.168;2023-04-24T13:20:03;4.53;;;2.53;;
36575;SDS011;45700;50.930;5.168;2023-04-24T13:24:05;4.93;;;2.40;;
36575;SDS011;45700;50.930;5.168;2023-04-24T13:28:07;9.00;;;3.08;;
36575;SDS011;45700;50.930;5.168;2023-04-24T13:32:08;7.32;;;3.22;;
36575;SDS011;45700;50.930;5.168;2023-04-24T13:36:10;5.30;;;2.90;;
36575;SDS011;45700;50.930;5.168;2023-04-24T13:40:11;7.53;;;2.90;;
36575;SDS011;45700;50.930;5.168;2023-04-24T13:44:12;8.98;;;2.60;;
36575;SDS011;45700;50.930;5.168;2023-04-24T13:48:13;6.25;;;2.97;;
36575;SDS011;45700;50.930;5.168;2023-04-24T13:52:15;5.18;;;2.15;;
36575;SDS011;45700;50.930;5.168;2023-04-24T13:56:16;6.53;;;2.53;;
36575;SDS011;45700;50.930;5.168;2023-04-24T14:00:17;3.50;;;2.63;;
36575;SDS011;45700;50.930;5.168;2023-04-24T14:04:19;6.63;;;2.15;;
36575;SDS011;45700;50.930;5.168;2023-04-24T14:08:20;7.70;;;2.15;;
36575;SDS011;45700;50.930;5.168;2023-04-24T14:12:21;6.88;;;2.55;;
36575;SDS011;45700;50.930;5.168;2023-04-24T14:16:22;5.55;;;2.30;;
36575;SDS011;45700;50.930;5.168;2023-04-24T14:20:23;4.63;;;2.60;;
36575;SDS011;45700;50.930;5.168;2023-04-24T14:24:24;7.32;;;2.50;;
36575;SDS011;45700;50.930;5.168;2023-04-24T14:28:25;4.50;;;2.53;;
36575;SDS011;45700;50.930;5.168;2023-04-24T14:32:26;5.90;;;2.47;;
36575;SDS011;45700;50.930;5.168;2023-04-24T14:36:28;5.30;;;2.67;;
36575;SDS011;45700;50.930;5.168;2023-04-24T14:40:29;8.27;;;2.60;;
36575;SDS011;45700;50.930;5.168;2023-04-24T14:44:31;2.03;;;1.83;;
36575;SDS011;45700;50.930;5.168;2023-04-24T14:48:32;8.10;;;2.90;;
36575;SDS011;45700;50.930;5.168;2023-04-24T14:52:33;6.57;;;2.45;;
36575;SDS011;45700;50.930;5.168;2023-04-24T14:56:35;6.45;;;2.58;;
36575;SDS011;45700;50.930;5.168;2023-04-24T15:00:36;4.25;;;2.40;;
36575;SDS011;45700;50.930;5.168;2023-04-24T15:04:37;4.40;;;2.03;;
36575;SDS011;45700;50.930;5.168;2023-04-24T15:08:38;6.88;;;2.92;;
36575;SDS011;45700;50.930;5.168;2023-04-24T15:12:39;8.10;;;2.15;;
36575;SDS011;45700;50.930;5.168;2023-04-24T15:16:41;5.57;;;2.50;;
36575;SDS011;45700;50.930;5.168;2023-04-24T15:20:42;3.13;;;2.50;;
36575;SDS011;45700;50.930;5.168;2023-04-24T15:24:43;2.28;;;1.58;;
36575;SDS011;45700;50.930;5.168;2023-04-24T15:28:44;3.15;;;2.10;;
36575;SDS011;45700;50.930;5.168;2023-04-24T15:32:46;3.28;;;2.00;;
36575;SDS011;45700;50.930;5.168;2023-04-24T15:36:47;6.45;;;2.13;;
36575;SDS011;45700;50.930;5.168;2023-04-24T15:40:49;6.00;;;1.80;;
36575;SDS011;45700;50.930;5.168;2023-04-24T15:44:50;2.15;;;1.52;;
36575;SDS011;45700;50.930;5.168;2023-04-24T15:48:51;3.40;;;1.35;;
36575;SDS011;45700;50.930;5.168;2023-04-24T15:52:52;2.25;;;1.60;;
36575;SDS011;45700;50.930;5.168;2023-04-24T15:56:53;2.67;;;1.45;;
36575;SDS011;45700;50.930;5.168;2023-04-24T16:00:54;2.50;;;1.23;;
36575;SDS011;45700;50.930;5.168;2023-04-24T16:04:55;3.78;;;1.40;;
36575;SDS011;45700;50.930;5.168;2023-04-24T16:08:56;1.73;;;1.05;;
36575;SDS011;45700;50.930;5.168;2023-04-24T16:12:57;4.03;;;1.23;;
36575;SDS011;45700;50.930;5.168;2023-04-24T16:17:03;5.38;;;1.45;;
36575;SDS011;45700;50.930;5.168;2023-04-24T16:21:04;2.13;;;1.00;;
36575;SDS011;45700;50.930;5.168;2023-04-24T16:25:05;2.75;;;1.00;;
36575;SDS011;45700;50.930;5.168;2023-04-24T16:29:07;3.60;;;1.17;;
36575;SDS011;45700;50.930;5.168;2023-04-24T16:33:08;4.20;;;1.13;;
36575;SDS011;45700;50.930;5.168;2023-04-24T16:37:09;2.97;;;0.95;;
36575;SDS011;45700;50.930;5.168;2023-04-24T16:41:11;5.38;;;1.60;;
36575;SDS011;45700;50.930;5.168;2023-04-24T16:45:12;2.67;;;1.15;;
36575;SDS011;45700;50.930;5.168;2023-04-24T16:49:13;4.63;;;1.38;;
36575;SDS011;45700;50.930;5.168;2023-04-24T16:53:14;4.35;;;1.20;;
36575;SDS011;45700;50.930;5.168;2023-04-24T16:57:15;6.03;;;1.23;;
36575;SDS011;45700;50.930;5.168;2023-04-24T17:01:16;2.20;;;1.30;;
36575;SDS011;45700;50.930;5.168;2023-04-24T17:05:17;1.50;;;1.10;;
36575;SDS011;45700;50.930;5.168;2023-04-24T17:09:20;5.35;;;1.25;;
36575;SDS011;45700;50.930;5.168;2023-04-24T17:13:21;4.15;;;1.27;;
36575;SDS011;45700;50.930;5.168;2023-04-24T17:17:22;6.13;;;1.42;;
36575;SDS011;45700;50.930;5.168;2023-04-24T17:21:24;4.43;;;1.60;;
36575;SDS011;45700;50.930;5.168;2023-04-24T17:25:25;5.85;;;1.63;;
36575;SDS011;45700;50.930;5.168;2023-04-24T17:29:26;5.25;;;1.50;;
36575;SDS011;45700;50.930;5.168;2023-04-24T17:33:28;5.35;;;1.77;;
36575;SDS011;45700;50.930;5.168;2023-04-24T17:37:32;4.05;;;1.98;;
36575;SDS011;45700;50.930;5.168;2023-04-24T17:41:33;5.70;;;1.90;;
36575;SDS011;45700;50.930;5.168;2023-04-24T17:45:34;6.35;;;1.55;;
36575;SDS011;45700;50.930;5.168;2023-04-24T17:49:36;4.05;;;1.60;;
36575;SDS011;45700;50.930;5.168;2023-04-24T17:53:38;9.38;;;1.83;;
36575;SDS011;45700;50.930;5.168;2023-04-24T17:57:40;3.10;;;1.40;;
36575;SDS011;45700;50.930;5.168;2023-04-24T18:01:41;3.35;;;1.42;;
36575;SDS011;45700;50.930;5.168;2023-04-24T18:05:42;4.75;;;1.77;;
36575;SDS011;45700;50.930;5.168;2023-04-24T18:09:43;3.22;;;1.65;;
36575;SDS011;45700;50.930;5.168;2023-04-24T18:13:45;2.17;;;1.58;;
36575;SDS011;45700;50.930;5.168;2023-04-24T18:17:47;4.22;;;1.80;;
36575;SDS011;45700;50.930;5.168;2023-04-24T18:21:48;4.50;;;1.90;;
36575;SDS011;45700;50.930;5.168;2023-04-24T18:25:49;3.58;;;1.90;;
36575;SDS011;45700;50.930;5.168;2023-04-24T18:29:50;6.15;;;1.92;;
36575;SDS011;45700;50.930;5.168;2023-04-24T18:33:51;6.25;;;1.98;;
36575;SDS011;45700;50.930;5.168;2023-04-24T18:37:54;6.03;;;2.20;;
36575;SDS011;45700;50.930;5.168;2023-04-24T18:41:55;6.57;;;2.28;;
36575;SDS011;45700;50.930;5.168;2023-04-24T18:45:56;6.93;;;2.33;;
36575;SDS011;45700;50.930;5.168;2023-04-24T18:49:57;4.82;;;2.00;;
36575;SDS011;45700;50.930;5.168;2023-04-24T18:53:58;5.30;;;1.73;;
36575;SDS011;45700;50.930;5.168;2023-04-24T18:57:59;3.15;;;2.10;;
36575;SDS011;45700;50.930;5.168;2023-04-24T19:02:00;3.60;;;1.90;;
36575;SDS011;45700;50.930;5.168;2023-04-24T19:06:01;8.57;;;2.47;;
36575;SDS011;45700;50.930;5.168;2023-04-24T19:10:02;7.18;;;2.55;;
36575;SDS011;45700;50.930;5.168;2023-04-24T19:14:03;5.95;;;2.20;;
36575;SDS011;45700;50.930;5.168;2023-04-24T19:18:06;6.93;;;2.45;;
36575;SDS011;45700;50.930;5.168;2023-04-24T19:22:07;7.28;;;2.38;;
36575;SDS011;45700;50.930;5.168;2023-04-24T19:26:08;9.65;;;2.60;;
36575;SDS011;45700;50.930;5.168;2023-04-24T19:30:10;3.35;;;2.10;;
36575;SDS011;45700;50.930;5.168;2023-04-24T19:34:11;3.58;;;2.22;;
36575;SDS011;45700;50.930;5.168;2023-04-24T19:38:12;4.85;;;2.22;;
36575;SDS011;45700;50.930;5.168;2023-04-24T19:42:13;11.13;;;2.85;;
36575;SDS011;45700;50.930;5.168;2023-04-24T19:46:14;9.45;;;2.17;;
36575;SDS011;45700;50.930;5.168;2023-04-24T19:50:15;5.78;;;2.58;;
36575;SDS011;45700;50.930;5.168;2023-04-24T19:54:16;5.13;;;2.38;;
36575;SDS011;45700;50.930;5.168;2023-04-24T19:58:19;9.02;;;2.75;;
36575;SDS011;45700;50.930;5.168;2023-04-24T20:02:20;4.05;;;1.75;;
36575;SDS011;45700;50.930;5.168;2023-04-24T20:06:21;6.65;;;2.05;;
36575;SDS011;45700;50.930;5.168;2023-04-24T20:10:22;3.97;;;2.28;;
36575;SDS011;45700;50.930;5.168;2023-04-24T20:14:23;8.90;;;2.30;;
36575;SDS011;45700;50.930;5.168;2023-04-24T20:18:24;6.28;;;2.15;;
36575;SDS011;45700;50.930;5.168;2023-04-24T20:22:25;5.38;;;1.80;;
36575;SDS011;45700;50.930;5.168;2023-04-24T20:26:26;7.35;;;2.22;;
36575;SDS011;45700;50.930;5.168;2023-04-24T20:30:27;9.60;;;2.38;;
36575;SDS011;45700;50.930;5.168;2023-04-24T20:34:30;5.60;;;2.50;;
36575;SDS011;45700;50.930;5.168;2023-04-24T20:38:31;4.63;;;1.95;;
36575;SDS011;45700;50.930;5.168;2023-04-24T20:42:32;4.85;;;2.50;;
36575;SDS011;45700;50.930;5.168;2023-04-24T20:46:33;10.57;;;2.15;;
36575;SDS011;45700;50.930;5.168;2023-04-24T20:50:34;7.40;;;2.17;;
36575;SDS011;45700;50.930;5.168;2023-04-24T20:54:37;9.38;;;2.33;;
36575;SDS011;45700;50.930;5.168;2023-04-24T20:58:41;7.55;;;1.83;;
36575;SDS011;45700;50.930;5.168;2023-04-24T21:02:44;7.68;;;2.28;;
36575;SDS011;45700;50.930;5.168;2023-04-24T21:06:45;10.60;;;2.47;;
36575;SDS011;45700;50.930;5.168;2023-04-24T21:10:46;6.25;;;1.83;;
36575;SDS011;45700;50.930;5.168;2023-04-24T21:14:47;7.63;;;2.28;;
36575;SDS011;45700;50.930;5.168;2023-04-24T21:18:48;9.43;;;3.78;;
36575;SDS011;45700;50.930;5.168;2023-04-24T21:22:49;5.82;;;2.40;;
36575;SDS011;45700;50.930;5.168;2023-04-24T21:26:50;4.45;;;1.88;;
36575;SDS011;45700;50.930;5.168;2023-04-24T21:30:51;5.47;;;2.33;;
36575;SDS011;45700;50.930;5.168;2023-04-24T21:34:52;5.13;;;2.25;;
36575;SDS011;45700;50.930;5.168;2023-04-24T21:38:53;8.45;;;2.60;;
36575;SDS011;45700;50.930;5.168;2023-04-24T21:42:54;7.78;;;2.22;;
36575;SDS011;45700;50.930;5.168;2023-04-24T21:46:55;15.45;;;2.95;;
36575;SDS011;45700;50.930;5.168;2023-04-24T21:50:56;10.55;;;2.55;;
36575;SDS011;45700;50.930;5.168;2023-04-24T21:54:57;8.38;;;2.25;;
36575;SDS011;45700;50.930;5.168;2023-04-24T21:58:58;9.43;;;2.72;;
36575;SDS011;45700;50.930;5.168;2023-04-24T22:03:00;11.00;;;2.50;;
36575;SDS011;45700;50.930;5.168;2023-04-24T22:07:01;11.73;;;2.60;;
36575;SDS011;45700;50.930;5.168;2023-04-24T22:11:02;4.43;;;1.98;;
36575;SDS011;45700;50.930;5.168;2023-04-24T22:15:03;9.00;;;3.40;;
36575;SDS011;45700;50.930;5.168;2023-04-24T22:19:04;10.95;;;2.47;;
36575;SDS011;45700;50.930;5.168;2023-04-24T22:23:05;9.23;;;2.85;;
36575;SDS011;45700;50.930;5.168;2023-04-24T22:27:06;8.23;;;2.70;;
36575;SDS011;45700;50.930;5.168;2023-04-24T22:31:07;11.65;;;3.30;;
36575;SDS011;45700;50.930;5.168;2023-04-24T22:35:09;8.45;;;2.45;;
36575;SDS011;45700;50.930;5.168;2023-04-24T22:39:10;10.40;;;3.22;;
36575;SDS011;45700;50.930;5.168;2023-04-24T22:43:14;10.25;;;2.75;;
36575;SDS011;45700;50.930;5.168;2023-04-24T22:47:16;11.35;;;2.72;;
36575;SDS011;45700;50.930;5.168;2023-04-24T22:51:18;5.78;;;2.78;;
36575;SDS011;45700;50.930;5.168;2023-04-24T22:55:20;19.00;;;3.40;;
36575;SDS011;45700;50.930;5.168;2023-04-24T22:59:21;11.40;;;3.38;;
36575;SDS011;45700;50.930;5.168;2023-04-24T23:03:22;12.23;;;3.35;;
36575;SDS011;45700;50.930;5.168;2023-04-24T23:07:24;12.27;;;2.63;;
36575;SDS011;45700;50.930;5.168;2023-04-24T23:11:25;8.00;;;2.53;;
36575;SDS011;45700;50.930;5.168;2023-04-24T23:15:26;13.30;;;3.33;;
36575;SDS011;45700;50.930;5.168;2023-04-24T23:19:27;15.93;;;3.55;;
36575;SDS011;45700;50.930;5.168;2023-04-24T23:23:28;10.38;;;2.85;;
36575;SDS011;45700;50.930;5.168;2023-04-24T23:27:29;12.00;;;3.40;;
36575;SDS011;45700;50.930;5.168;2023-04-24T23:31:30;10.18;;;2.42;;
36575;SDS011;45700;50.930;5.168;2023-04-24T23:35:31;8.20;;;2.90;;
36575;SDS011;45700;50.930;5.168;2023-04-24T23:39:32;17.17;;;3.90;;
36575;SDS011;45700;50.930;5.168;2023-04-24T23:43:33;9.57;;;3.08;;
36575;SDS011;45700;50.930;5.168;2023-04-24T23:47:34;8.98;;;3.67;;
36575;SDS011;45700;50.930;5.168;2023-04-24T23:51:35;9.73;;;3.38;;
36575;SDS011;45700;50.930;5.168;2023-04-24T23:55:37;13.80;;;3.70;;
36575;SDS011;45700;50.930;5.168;2023-04-24T23:59:38;10.68;;;2.70;;
